createdAt,value
2023-02-03T00:00:01.091Z,5.15
2023-02-03T00:02:27.766Z,4.95
2023-02-03T00:04:54.430Z,6.25
2023-02-03T00:07:21.199Z,8.73
2023-02-03T00:09:47.970Z,5.72
2023-02-03T00:12:14.644Z,5.03
2023-02-03T00:14:41.302Z,8.20
2023-02-03T00:17:07.960Z,7.03
2023-02-03T00:19:34.676Z,4.07
2023-02-03T00:22:03.903Z,4.13
2023-02-03T00:24:32.977Z,4.25
2023-02-03T00:27:01.767Z,7.33
2023-02-03T00:29:28.432Z,4.85
2023-02-03T00:31:55.232Z,5.65
2023-02-03T00:34:22.081Z,5.35
2023-02-03T00:36:49.039Z,3.65
2023-02-03T00:39:17.321Z,7.68
2023-02-03T00:41:44.260Z,4.75
2023-02-03T00:44:11.302Z,4.30
2023-02-03T00:46:38.140Z,9.30
2023-02-03T00:49:05.205Z,5.80
2023-02-03T00:51:32.981Z,3.75
2023-02-03T00:54:00.008Z,5.25
2023-02-03T00:56:29.122Z,5.85
2023-02-03T00:58:55.800Z,7.67
2023-02-03T01:01:22.635Z,5.18
2023-02-03T01:03:50.101Z,5.63
2023-02-03T01:06:20.035Z,5.53
2023-02-03T01:11:17.237Z,4.95
2023-02-03T01:13:44.710Z,4.88
2023-02-03T01:16:13.571Z,3.85
2023-02-03T01:18:41.060Z,4.65
2023-02-03T01:21:09.493Z,5.30
2023-02-03T01:23:37.467Z,4.93
2023-02-03T01:26:12.065Z,5.53
2023-02-03T01:28:39.268Z,3.42
2023-02-03T01:31:13.775Z,7.50
2023-02-03T01:33:41.086Z,4.35
2023-02-03T01:36:09.519Z,4.80
2023-02-03T01:38:37.906Z,5.90
2023-02-03T01:41:07.462Z,5.32
2023-02-03T01:43:39.636Z,6.03
2023-02-03T01:46:27.742Z,4.28
2023-02-03T01:49:01.784Z,7.07
2023-02-03T01:51:31.488Z,5.68
2023-02-03T01:54:01.212Z,2.13
2023-02-03T01:56:33.276Z,3.72
2023-02-03T01:59:00.911Z,3.25
2023-02-03T02:01:31.360Z,5.10
2023-02-03T02:04:00.968Z,2.92
2023-02-03T02:06:28.050Z,4.97
2023-02-03T02:08:57.748Z,2.83
2023-02-03T02:11:24.472Z,3.92
2023-02-03T02:13:53.151Z,3.30
2023-02-03T02:16:38.737Z,4.28
2023-02-03T02:19:23.600Z,2.60
2023-02-03T02:21:59.209Z,4.78
2023-02-03T02:24:25.813Z,8.18
2023-02-03T02:27:11.106Z,2.83
2023-02-03T02:30:04.253Z,4.05
2023-02-03T02:32:47.301Z,2.38
2023-02-03T02:35:33.488Z,6.65
2023-02-03T02:38:06.858Z,4.88
2023-02-03T02:40:43.226Z,5.43
2023-02-03T02:43:13.676Z,3.03
2023-02-03T02:45:49.383Z,3.25
2023-02-03T02:48:44.842Z,5.13
2023-02-03T02:51:17.899Z,5.05
2023-02-03T02:53:56.648Z,5.30
2023-02-03T02:56:25.536Z,7.25
2023-02-03T02:58:55.047Z,4.13
2023-02-03T03:01:21.797Z,3.47
2023-02-03T03:03:48.632Z,4.25
2023-02-03T03:06:29.102Z,2.28
2023-02-03T03:09:04.097Z,3.17
2023-02-03T03:11:36.861Z,3.88
2023-02-03T03:14:05.380Z,4.55
2023-02-03T03:16:35.407Z,3.45
2023-02-03T03:21:37.696Z,2.22
2023-02-03T03:24:09.613Z,2.45
2023-02-03T03:26:42.123Z,2.42
2023-02-03T03:29:22.775Z,5.15
2023-02-03T03:31:49.728Z,3.85
2023-02-03T03:34:17.673Z,3.42
2023-02-03T03:36:49.240Z,3.30
2023-02-03T03:39:37.182Z,4.50
2023-02-03T03:42:26.302Z,5.70
2023-02-03T03:45:28.355Z,2.37
2023-02-03T03:48:01.742Z,4.07
2023-02-03T03:50:34.079Z,5.13
2023-02-03T03:53:02.940Z,3.90
2023-02-03T03:55:32.938Z,6.40
2023-02-03T04:00:45.362Z,2.95
2023-02-03T04:03:19.685Z,3.80
2023-02-03T04:05:46.433Z,4.03
2023-02-03T04:08:15.516Z,6.80
2023-02-03T04:10:45.610Z,2.10
2023-02-03T04:13:12.645Z,2.50
2023-02-03T04:15:39.384Z,5.20
2023-02-03T04:18:06.493Z,2.80
2023-02-03T04:20:35.703Z,4.70
2023-02-03T04:23:02.445Z,5.00
2023-02-03T04:25:31.494Z,2.70
2023-02-03T04:27:58.327Z,9.77
2023-02-03T04:30:25.051Z,3.03
2023-02-03T04:32:54.127Z,4.25
2023-02-03T04:35:21.111Z,7.17
2023-02-03T04:37:47.788Z,3.70
2023-02-03T04:40:16.901Z,8.00
2023-02-03T04:42:43.611Z,5.07
2023-02-03T04:45:11.982Z,3.67
2023-02-03T04:47:39.735Z,1.58
2023-02-03T04:50:06.925Z,3.45
2023-02-03T04:52:35.836Z,5.13
2023-02-03T04:55:03.991Z,5.35
2023-02-03T04:57:30.923Z,2.67
2023-02-03T04:59:57.624Z,3.67
2023-02-03T05:02:24.341Z,3.70
2023-02-03T05:04:50.999Z,4.43
2023-02-03T05:07:17.632Z,3.33
2023-02-03T05:09:44.304Z,3.53
2023-02-03T05:12:11.013Z,5.50
2023-02-03T05:14:40.068Z,4.15
2023-02-03T05:17:08.915Z,2.83
2023-02-03T05:19:35.652Z,4.32
2023-02-03T05:22:02.411Z,3.53
2023-02-03T05:24:29.080Z,6.32
2023-02-03T05:26:58.272Z,5.30
2023-02-03T05:29:24.927Z,4.15
2023-02-03T05:31:51.724Z,3.88
2023-02-03T05:34:20.838Z,3.45
2023-02-03T05:36:47.666Z,3.53
2023-02-03T05:39:14.361Z,9.07
2023-02-03T05:41:53.472Z,6.97
2023-02-03T05:44:24.313Z,4.95
2023-02-03T05:46:53.264Z,4.10
2023-02-03T05:49:25.685Z,4.97
2023-02-03T05:51:54.222Z,4.45
2023-02-03T05:54:21.113Z,2.70
2023-02-03T05:56:50.194Z,4.00
2023-02-03T05:59:19.778Z,6.00
2023-02-03T06:01:46.548Z,3.40
2023-02-03T06:04:13.357Z,5.18
2023-02-03T06:06:40.080Z,3.20
2023-02-03T06:09:09.202Z,4.95
2023-02-03T06:11:38.477Z,6.50
2023-02-03T06:14:09.662Z,6.07
2023-02-03T06:16:36.449Z,5.57
2023-02-03T06:19:03.285Z,4.10
2023-02-03T06:21:29.995Z,7.20
2023-02-03T06:23:59.151Z,5.50
2023-02-03T06:26:25.998Z,2.90
2023-02-03T06:28:54.904Z,2.65
2023-02-03T06:31:21.640Z,4.15
2023-02-03T06:33:48.432Z,7.55
2023-02-03T06:36:15.147Z,4.05
2023-02-03T06:38:41.875Z,5.07
2023-02-03T06:41:10.707Z,4.47
2023-02-03T06:43:37.411Z,3.42
2023-02-03T06:46:04.269Z,6.72
2023-02-03T06:48:30.990Z,2.35
2023-02-03T06:51:00.115Z,4.72
2023-02-03T06:53:26.930Z,5.87
2023-02-03T06:55:53.642Z,4.40
2023-02-03T06:58:25.271Z,3.17
2023-02-03T07:00:55.266Z,2.38
2023-02-03T07:05:48.505Z,2.75
2023-02-03T07:08:15.178Z,3.55
2023-02-03T07:10:41.887Z,5.05
2023-02-03T07:13:08.776Z,7.72
2023-02-03T07:15:37.939Z,2.50
2023-02-03T07:18:04.694Z,3.65
2023-02-03T07:20:32.894Z,2.15
2023-02-03T07:22:59.622Z,3.78
2023-02-03T07:25:28.693Z,4.30
2023-02-03T07:27:55.433Z,1.50
2023-02-03T07:30:22.423Z,3.83
2023-02-03T07:32:50.464Z,4.13
2023-02-03T07:35:17.633Z,3.03
2023-02-03T07:37:44.728Z,3.45
2023-02-03T07:40:15.054Z,2.10
2023-02-03T07:42:45.922Z,2.30
2023-02-03T07:45:14.651Z,4.97
2023-02-03T07:47:43.078Z,5.05
2023-02-03T07:50:11.483Z,2.25
2023-02-03T07:52:39.212Z,2.33
2023-02-03T07:55:06.191Z,5.47
2023-02-03T07:57:35.833Z,3.25
2023-02-03T08:00:07.565Z,4.38
2023-02-03T08:02:34.240Z,3.30
2023-02-03T08:05:01.032Z,2.78
2023-02-03T08:07:27.756Z,5.07
2023-02-03T08:09:54.438Z,6.03
2023-02-03T08:12:23.652Z,4.65
2023-02-03T08:14:50.396Z,4.90
2023-02-03T08:17:17.155Z,4.68
2023-02-03T08:19:43.871Z,5.20
2023-02-03T08:22:15.965Z,2.83
2023-02-03T08:24:47.022Z,2.25
2023-02-03T08:27:18.055Z,3.30
2023-02-03T08:29:46.009Z,6.20
2023-02-03T08:32:15.225Z,5.65
2023-02-03T08:34:42.025Z,3.17
2023-02-03T08:37:08.831Z,5.53
2023-02-03T08:39:35.645Z,6.70
2023-02-03T08:42:04.108Z,2.13
2023-02-03T08:44:32.096Z,5.68
2023-02-03T08:46:59.723Z,4.22
2023-02-03T08:49:28.730Z,7.95
2023-02-03T08:51:56.641Z,5.40
2023-02-03T08:54:24.152Z,7.65
2023-02-03T08:56:51.594Z,5.13
2023-02-03T08:59:18.373Z,3.90
2023-02-03T09:01:45.901Z,3.22
2023-02-03T09:04:13.155Z,5.35
2023-02-03T09:06:40.334Z,2.92
2023-02-03T09:09:07.340Z,5.70
2023-02-03T09:11:34.067Z,4.43
2023-02-03T09:14:00.720Z,1.98
2023-02-03T09:16:27.453Z,5.70
2023-02-03T09:18:56.375Z,4.25
2023-02-03T09:21:33.075Z,3.47
2023-02-03T09:24:08.881Z,4.95
2023-02-03T09:26:38.155Z,5.00
2023-02-03T09:29:05.037Z,3.45
2023-02-03T09:31:31.798Z,5.57
2023-02-03T09:34:01.872Z,6.50
2023-02-03T09:36:28.586Z,5.07
2023-02-03T09:38:58.273Z,4.82
2023-02-03T09:41:49.215Z,3.50
2023-02-03T09:44:18.955Z,5.82
2023-02-03T09:46:50.864Z,3.03
2023-02-03T09:49:26.292Z,4.35
2023-02-03T09:52:13.164Z,4.40
2023-02-03T09:54:46.142Z,2.55
2023-02-03T09:57:23.805Z,3.90
2023-02-03T09:59:54.636Z,8.30
2023-02-03T10:02:30.458Z,2.53
2023-02-03T10:05:15.776Z,4.43
2023-02-03T10:08:09.958Z,5.90
2023-02-03T10:11:10.522Z,3.63
2023-02-03T10:13:43.029Z,2.33
2023-02-03T10:16:29.788Z,4.32
2023-02-03T10:18:59.852Z,5.43
2023-02-03T10:21:41.221Z,3.17
2023-02-03T10:24:20.247Z,6.18
2023-02-03T10:26:47.191Z,2.83
2023-02-03T10:29:37.624Z,2.50
2023-02-03T10:32:10.081Z,6.15
2023-02-03T10:34:37.750Z,6.97
2023-02-03T10:37:26.164Z,7.63
2023-02-03T10:39:57.613Z,7.57
2023-02-03T10:42:24.482Z,8.05
2023-02-03T10:44:59.198Z,2.63
2023-02-03T10:47:34.248Z,3.08
2023-02-03T10:50:06.412Z,7.25
2023-02-03T10:52:35.362Z,4.20
2023-02-03T10:55:08.259Z,3.38
2023-02-03T10:57:39.411Z,4.22
2023-02-03T11:00:24.115Z,6.30
2023-02-03T11:03:24.838Z,5.10
2023-02-03T11:06:15.261Z,4.03
2023-02-03T11:08:46.980Z,2.97
2023-02-03T11:11:20.110Z,3.78
2023-02-03T11:13:48.802Z,1.35
2023-02-03T11:16:24.464Z,2.15
2023-02-03T11:19:04.638Z,5.20
2023-02-03T11:21:37.443Z,3.08
2023-02-03T11:24:21.029Z,2.58
2023-02-03T11:26:54.310Z,3.05
2023-02-03T11:29:26.133Z,3.35
2023-02-03T11:31:58.324Z,2.08
2023-02-03T11:34:29.769Z,1.05
2023-02-03T11:36:59.781Z,2.55
2023-02-03T11:39:35.690Z,3.15
2023-02-03T11:42:03.448Z,1.83
2023-02-03T11:44:33.588Z,4.05
2023-02-03T11:47:11.832Z,2.65
2023-02-03T11:49:55.617Z,3.35
2023-02-03T11:52:31.114Z,3.63
2023-02-03T11:55:15.594Z,2.08
2023-02-03T11:58:00.113Z,1.80
2023-02-03T12:00:38.633Z,4.05
2023-02-03T12:03:35.663Z,1.75
2023-02-03T12:06:10.094Z,3.05
2023-02-03T12:09:20.651Z,2.35
2023-02-03T12:12:07.653Z,1.88
2023-02-03T12:15:06.843Z,3.60
2023-02-03T12:18:10.983Z,3.17
2023-02-03T12:20:43.608Z,1.77
2023-02-03T12:23:23.703Z,1.60
2023-02-03T12:26:02.659Z,1.48
2023-02-03T12:28:41.355Z,1.58
2023-02-03T12:31:30.670Z,1.55
2023-02-03T12:34:06.663Z,4.07
2023-02-03T12:36:42.837Z,1.80
2023-02-03T12:39:12.345Z,3.20
2023-02-03T12:42:03.148Z,2.95
2023-02-03T12:44:43.402Z,2.88
2023-02-03T12:47:29.345Z,6.68
2023-02-03T12:50:05.559Z,2.95
2023-02-03T12:52:40.769Z,3.85
2023-02-03T12:55:45.133Z,4.75
2023-02-03T12:58:23.233Z,5.13
2023-02-03T13:01:17.106Z,3.25
2023-02-03T13:04:11.485Z,5.00
2023-02-03T13:07:02.860Z,4.40
2023-02-03T13:09:43.534Z,4.70
2023-02-03T13:12:16.379Z,3.10
2023-02-03T13:15:04.916Z,5.38
2023-02-03T13:17:41.105Z,5.78
2023-02-03T13:20:27.039Z,5.10
2023-02-03T13:22:53.962Z,6.22
2023-02-03T13:25:31.724Z,5.30
2023-02-03T13:28:16.525Z,6.45
2023-02-03T13:30:52.201Z,6.63
2023-02-03T13:33:30.936Z,6.53
2023-02-03T13:36:15.815Z,3.88
2023-02-03T13:38:56.180Z,6.65
2023-02-03T13:41:28.554Z,5.97
2023-02-03T13:44:00.042Z,6.70
2023-02-03T13:46:32.068Z,6.18
2023-02-03T13:49:01.507Z,5.68
2023-02-03T13:51:46.180Z,7.63
2023-02-03T13:54:27.185Z,5.32
2023-02-03T13:57:19.544Z,7.38
2023-02-03T13:59:50.419Z,5.43
2023-02-03T14:02:20.198Z,5.18
2023-02-03T14:04:46.940Z,10.40
2023-02-03T14:07:33.376Z,4.65
2023-02-03T14:10:24.075Z,6.63
2023-02-03T14:12:50.754Z,6.32
2023-02-03T14:15:23.186Z,5.88
2023-02-03T14:18:24.688Z,8.02
2023-02-03T14:20:55.608Z,8.27
2023-02-03T14:23:41.782Z,9.27
2023-02-03T14:26:30.485Z,8.75
2023-02-03T14:28:57.906Z,8.07
2023-02-03T14:31:26.354Z,8.73
2023-02-03T14:34:05.117Z,6.03
2023-02-03T14:36:38.663Z,6.05
2023-02-03T14:39:17.916Z,5.60
2023-02-03T14:42:03.690Z,6.95
2023-02-03T14:44:54.539Z,6.63
2023-02-03T14:47:55.221Z,6.85
2023-02-03T14:51:03.204Z,6.55
2023-02-03T14:53:57.973Z,6.15
2023-02-03T14:56:58.980Z,6.00
2023-02-03T14:59:30.507Z,7.55
2023-02-03T15:01:57.134Z,10.77
2023-02-03T15:04:24.711Z,6.00
2023-02-03T15:06:53.154Z,8.23
2023-02-03T15:09:38.916Z,6.10
2023-02-03T15:12:19.312Z,8.40
2023-02-03T15:14:46.020Z,4.78
2023-02-03T15:17:28.874Z,6.15
2023-02-03T15:19:55.619Z,6.30
2023-02-03T15:22:31.066Z,5.85
2023-02-03T15:25:04.306Z,7.22
2023-02-03T15:27:34.533Z,6.65
2023-02-03T15:30:25.066Z,7.78
2023-02-03T15:33:08.897Z,7.53
2023-02-03T15:35:37.530Z,6.82
2023-02-03T15:38:10.870Z,7.90
2023-02-03T15:40:54.563Z,7.88
2023-02-03T15:43:21.227Z,5.07
2023-02-03T15:46:13.121Z,6.63
2023-02-03T15:48:50.303Z,10.35
2023-02-03T15:51:26.255Z,8.57
2023-02-03T15:54:15.076Z,8.68
2023-02-03T15:56:45.256Z,6.10
2023-02-03T15:59:24.996Z,6.50
2023-02-03T16:01:52.688Z,11.52
2023-02-03T16:04:21.425Z,7.05
2023-02-03T16:06:53.225Z,6.75
2023-02-03T16:09:39.294Z,11.20
2023-02-03T16:12:35.693Z,7.18
2023-02-03T16:15:02.990Z,6.53
2023-02-03T16:17:35.543Z,5.05
2023-02-03T16:20:14.329Z,7.97
2023-02-03T16:22:46.862Z,5.78
2023-02-03T16:25:21.128Z,7.38
2023-02-03T16:28:39.976Z,6.10
2023-02-03T16:31:40.966Z,8.20
2023-02-03T16:34:44.059Z,5.45
2023-02-03T16:37:43.823Z,6.20
2023-02-03T16:40:30.892Z,5.88
2023-02-03T16:43:18.264Z,4.63
2023-02-03T16:46:03.705Z,5.85
2023-02-03T16:48:51.733Z,7.10
2023-02-03T16:51:18.541Z,7.80
2023-02-03T16:53:48.654Z,8.18
2023-02-03T16:56:18.563Z,5.35
2023-02-03T17:01:14.426Z,6.53
2023-02-03T17:03:44.414Z,7.88
2023-02-03T17:08:42.273Z,9.60
2023-02-03T17:11:20.925Z,11.75
2023-02-03T17:13:50.749Z,9.43
2023-02-03T17:16:22.998Z,7.97
2023-02-03T17:18:49.915Z,13.82
2023-02-03T17:21:21.796Z,11.45
2023-02-03T17:23:48.711Z,10.55
2023-02-03T17:26:15.549Z,11.38
2023-02-03T17:28:43.228Z,8.60
2023-02-03T17:31:18.023Z,8.40
2023-02-03T17:33:45.276Z,10.30
2023-02-03T17:36:14.956Z,12.88
2023-02-03T17:55:13.382Z,13.05
2023-02-03T17:57:44.532Z,12.25
2023-02-03T18:00:11.818Z,12.85
2023-02-03T18:02:38.541Z,11.40
2023-02-03T18:05:05.628Z,9.60
2023-02-03T18:07:34.828Z,10.15
2023-02-03T18:10:01.532Z,10.85
2023-02-03T18:12:28.300Z,9.57
2023-02-03T18:14:57.909Z,6.57
2023-02-03T18:17:24.643Z,9.10
2023-02-03T18:19:56.293Z,8.70
2023-02-03T18:22:23.712Z,8.27
2023-02-03T18:24:54.812Z,8.02
2023-02-03T18:27:21.585Z,9.63
2023-02-03T18:29:48.804Z,11.50
2023-02-03T18:32:16.596Z,8.45
2023-02-03T18:34:43.582Z,12.90
2023-02-03T18:37:10.314Z,12.63
2023-02-03T18:39:37.001Z,18.27
2023-02-03T18:42:04.274Z,12.23
2023-02-03T18:44:31.708Z,10.32
2023-02-03T18:47:06.458Z,13.50
2023-02-03T18:49:36.580Z,9.10
2023-02-03T18:52:04.290Z,11.13
2023-02-03T18:54:31.072Z,14.65
2023-02-03T18:57:02.880Z,12.73
2023-02-03T18:59:29.745Z,14.85
2023-02-03T19:01:56.404Z,13.43
2023-02-03T19:04:23.388Z,16.60
2023-02-03T19:06:51.394Z,14.93
2023-02-03T19:09:19.259Z,11.43
2023-02-03T19:11:48.502Z,14.35
2023-02-03T19:14:16.350Z,16.42
2023-02-03T19:16:43.753Z,20.25
2023-02-03T19:19:12.966Z,15.70
2023-02-03T19:21:39.673Z,9.00
2023-02-03T19:24:09.104Z,10.25
2023-02-03T19:26:35.770Z,13.00
2023-02-03T19:29:02.444Z,12.43
2023-02-03T19:31:29.343Z,15.82
2023-02-03T19:33:58.946Z,10.50
2023-02-03T19:36:27.447Z,12.93
2023-02-03T19:38:54.857Z,10.30
2023-02-03T19:41:22.857Z,10.52
2023-02-03T19:43:52.047Z,12.25
2023-02-03T19:46:21.583Z,11.60
2023-02-03T19:48:51.288Z,8.32
2023-02-03T19:51:18.038Z,9.52
2023-02-03T19:53:47.114Z,10.63
2023-02-03T19:56:15.985Z,13.27
2023-02-03T19:58:50.507Z,16.47
2023-02-03T20:01:19.778Z,11.43
2023-02-03T20:03:48.970Z,14.18
2023-02-03T20:06:16.333Z,17.67
2023-02-03T20:08:43.200Z,13.10
2023-02-03T20:11:12.457Z,12.38
2023-02-03T20:13:43.355Z,12.40
2023-02-03T20:16:15.062Z,10.23
2023-02-03T20:18:41.782Z,14.15
2023-02-03T20:21:09.523Z,12.52
2023-02-03T20:23:36.857Z,12.40
2023-02-03T20:26:03.669Z,12.40
2023-02-03T20:28:30.593Z,15.48
2023-02-03T20:31:00.522Z,11.60
2023-02-03T20:33:29.228Z,9.30
2023-02-03T20:35:58.776Z,12.45
2023-02-03T20:38:28.492Z,15.35
2023-02-03T20:40:55.293Z,10.13
2023-02-03T20:43:27.324Z,11.23
2023-02-03T20:45:54.784Z,11.20
2023-02-03T20:48:25.393Z,14.93
2023-02-03T20:50:52.356Z,17.90
2023-02-03T20:53:21.767Z,12.93
2023-02-03T20:55:51.791Z,12.30
2023-02-03T20:58:25.548Z,14.93
2023-02-03T21:00:53.053Z,20.40
2023-02-03T21:03:39.023Z,16.13
2023-02-03T21:06:32.955Z,14.77
2023-02-03T21:09:15.414Z,14.65
2023-02-03T21:11:43.077Z,11.73
2023-02-03T21:14:39.183Z,10.18
2023-02-03T21:17:19.285Z,12.10
2023-02-03T21:19:46.462Z,8.27
2023-02-03T21:22:27.189Z,15.77
2023-02-03T21:24:58.979Z,15.20
2023-02-03T21:27:34.052Z,13.25
2023-02-03T21:30:05.881Z,13.35
2023-02-03T21:32:41.883Z,15.40
2023-02-03T21:35:31.842Z,16.80
2023-02-03T21:40:32.262Z,16.08
2023-02-03T21:43:00.045Z,14.95
2023-02-03T21:45:38.920Z,11.93
2023-02-03T21:48:29.812Z,18.00
2023-02-03T21:51:04.240Z,16.70
2023-02-03T21:53:36.055Z,14.60
2023-02-03T21:56:23.932Z,14.57
2023-02-03T21:58:57.436Z,12.60
2023-02-03T22:01:35.484Z,12.60
2023-02-03T22:04:04.035Z,12.45
2023-02-03T22:06:44.462Z,18.45
2023-02-03T22:09:16.822Z,13.52
2023-02-03T22:11:44.085Z,16.17
2023-02-03T22:14:11.788Z,14.07
2023-02-03T22:16:38.766Z,14.75
2023-02-03T22:19:05.628Z,16.35
2023-02-03T22:21:35.816Z,15.55
2023-02-03T22:26:29.486Z,19.15
2023-02-03T22:28:56.200Z,16.92
2023-02-03T22:31:23.587Z,17.50
2023-02-03T22:33:50.403Z,17.55
2023-02-03T22:36:17.131Z,18.33
2023-02-03T22:38:43.896Z,15.18
2023-02-03T22:41:14.287Z,15.43
2023-02-03T22:43:41.301Z,14.88
2023-02-03T22:46:11.015Z,14.00
2023-02-03T22:48:40.026Z,20.75
2023-02-03T22:51:06.715Z,16.15
2023-02-03T22:53:34.663Z,19.42
2023-02-03T22:56:01.585Z,18.00
2023-02-03T22:58:28.318Z,10.30
2023-02-03T23:00:55.038Z,15.60
2023-02-03T23:03:21.888Z,14.18
2023-02-03T23:05:48.610Z,19.30
2023-02-03T23:08:17.655Z,19.65
2023-02-03T23:10:48.165Z,13.83
2023-02-03T23:13:17.097Z,13.38
2023-02-03T23:15:48.691Z,14.73
2023-02-03T23:18:15.394Z,15.65
2023-02-03T23:20:42.087Z,10.95
2023-02-03T23:23:10.909Z,16.80
2023-02-03T23:25:37.580Z,10.80
2023-02-03T23:28:04.443Z,14.80
2023-02-03T23:30:31.434Z,14.77
2023-02-03T23:33:00.653Z,16.45
2023-02-03T23:35:45.330Z,11.37
2023-02-03T23:38:16.056Z,17.02
2023-02-03T23:40:45.166Z,17.13
2023-02-03T23:43:14.302Z,20.63
2023-02-03T23:45:44.325Z,14.23
2023-02-03T23:50:37.919Z,17.52
2023-02-03T23:53:04.857Z,12.65
2023-02-03T23:55:31.623Z,15.88
2023-02-03T23:57:58.284Z,20.73
